sensor_id;sensor_type;location;lat;lon;timestamp;pressure;altitude;pressure_sealevel;temperature
43292;BMP280;28754;47.700;7.924;2022-12-07T00:00:26;91220.59;;;6.11
43292;BMP280;28754;47.700;7.924;2022-12-07T00:03:13;91219.28;;;6.08
43292;BMP280;28754;47.700;7.924;2022-12-07T00:06:01;91218.53;;;6.08
43292;BMP280;28754;47.700;7.924;2022-12-07T00:08:48;91208.81;;;6.05
43292;BMP280;28754;47.700;7.924;2022-12-07T00:11:35;91211.88;;;6.07
43292;BMP280;28754;47.700;7.924;2022-12-07T00:14:22;91210.41;;;6.11
43292;BMP280;28754;47.700;7.924;2022-12-07T00:17:08;91212.41;;;6.09
43292;BMP280;28754;47.700;7.924;2022-12-07T00:19:55;91204.75;;;6.04
43292;BMP280;28754;47.700;7.924;2022-12-07T00:22:42;91208.53;;;6.01
43292;BMP280;28754;47.700;7.924;2022-12-07T00:25:30;91206.69;;;5.97
43292;BMP280;28754;47.700;7.924;2022-12-07T00:28:16;91207.13;;;5.94
43292;BMP280;28754;47.700;7.924;2022-12-07T00:31:07;91198.97;;;5.92
43292;BMP280;28754;47.700;7.924;2022-12-07T00:33:54;91198.44;;;5.90
43292;BMP280;28754;47.700;7.924;2022-12-07T00:36:40;91201.94;;;5.84
43292;BMP280;28754;47.700;7.924;2022-12-07T00:39:27;91192.69;;;5.78
43292;BMP280;28754;47.700;7.924;2022-12-07T00:42:14;91198.69;;;5.72
43292;BMP280;28754;47.700;7.924;2022-12-07T00:45:00;91201.91;;;5.68
43292;BMP280;28754;47.700;7.924;2022-12-07T00:47:47;91197.84;;;5.67
43292;BMP280;28754;47.700;7.924;2022-12-07T00:50:34;91205.75;;;5.70
43292;BMP280;28754;47.700;7.924;2022-12-07T00:53:20;91198.13;;;5.70
43292;BMP280;28754;47.700;7.924;2022-12-07T00:56:12;91200.47;;;5.72
43292;BMP280;28754;47.700;7.924;2022-12-07T00:59:03;91198.34;;;5.69
43292;BMP280;28754;47.700;7.924;2022-12-07T01:01:49;91192.97;;;5.65
43292;BMP280;28754;47.700;7.924;2022-12-07T01:04:36;91195.97;;;5.62
43292;BMP280;28754;47.700;7.924;2022-12-07T01:07:23;91192.38;;;5.58
43292;BMP280;28754;47.700;7.924;2022-12-07T01:10:10;91201.44;;;5.54
43292;BMP280;28754;47.700;7.924;2022-12-07T01:12:57;91198.38;;;5.52
43292;BMP280;28754;47.700;7.924;2022-12-07T01:15:45;91186.06;;;5.45
43292;BMP280;28754;47.700;7.924;2022-12-07T01:18:34;91193.91;;;5.43
43292;BMP280;28754;47.700;7.924;2022-12-07T01:21:28;91186.97;;;5.39
43292;BMP280;28754;47.700;7.924;2022-12-07T01:24:15;91195.06;;;5.36
43292;BMP280;28754;47.700;7.924;2022-12-07T01:27:02;91202.69;;;5.36
43292;BMP280;28754;47.700;7.924;2022-12-07T01:29:50;91201.22;;;5.40
43292;BMP280;28754;47.700;7.924;2022-12-07T01:32:37;91202.06;;;5.45
43292;BMP280;28754;47.700;7.924;2022-12-07T01:35:24;91203.44;;;5.52
43292;BMP280;28754;47.700;7.924;2022-12-07T01:38:10;91202.75;;;5.57
43292;BMP280;28754;47.700;7.924;2022-12-07T01:40:58;91205.06;;;5.58
43292;BMP280;28754;47.700;7.924;2022-12-07T01:47:04;91203.53;;;5.57
43292;BMP280;28754;47.700;7.924;2022-12-07T01:49:50;91205.94;;;5.47
43292;BMP280;28754;47.700;7.924;2022-12-07T01:55:18;91215.91;;;5.38
43292;BMP280;28754;47.700;7.924;2022-12-07T01:58:05;91214.91;;;5.39
43292;BMP280;28754;47.700;7.924;2022-12-07T02:00:52;91213.84;;;5.35
43292;BMP280;28754;47.700;7.924;2022-12-07T02:03:42;91208.44;;;5.31
43292;BMP280;28754;47.700;7.924;2022-12-07T02:06:30;91211.91;;;5.25
43292;BMP280;28754;47.700;7.924;2022-12-07T02:09:17;91209.97;;;5.16
43292;BMP280;28754;47.700;7.924;2022-12-07T02:12:04;91208.03;;;5.07
43292;BMP280;28754;47.700;7.924;2022-12-07T02:14:52;91211.72;;;4.99
43292;BMP280;28754;47.700;7.924;2022-12-07T02:18:00;91200.94;;;4.92
43292;BMP280;28754;47.700;7.924;2022-12-07T02:21:03;91213.38;;;4.94
43292;BMP280;28754;47.700;7.924;2022-12-07T02:24:30;91206.44;;;4.89
43292;BMP280;28754;47.700;7.924;2022-12-07T02:27:57;91206.91;;;4.86
43292;BMP280;28754;47.700;7.924;2022-12-07T02:30:51;91200.75;;;4.82
43292;BMP280;28754;47.700;7.924;2022-12-07T02:33:49;91194.72;;;4.83
43292;BMP280;28754;47.700;7.924;2022-12-07T02:36:51;91189.78;;;4.77
43292;BMP280;28754;47.700;7.924;2022-12-07T02:39:53;91185.81;;;4.70
43292;BMP280;28754;47.700;7.924;2022-12-07T02:42:50;91183.97;;;4.65
43292;BMP280;28754;47.700;7.924;2022-12-07T02:45:41;91186.41;;;4.60
43292;BMP280;28754;47.700;7.924;2022-12-07T02:48:29;91185.31;;;4.56
43292;BMP280;28754;47.700;7.924;2022-12-07T02:51:18;91186.56;;;4.54
43292;BMP280;28754;47.700;7.924;2022-12-07T02:54:16;91189.38;;;4.57
43292;BMP280;28754;47.700;7.924;2022-12-07T02:57:54;91186.78;;;4.52
43292;BMP280;28754;47.700;7.924;2022-12-07T03:01:21;91189.09;;;4.54
43292;BMP280;28754;47.700;7.924;2022-12-07T03:11:29;91194.28;;;4.75
43292;BMP280;28754;47.700;7.924;2022-12-07T03:14:30;91176.22;;;4.72
43292;BMP280;28754;47.700;7.924;2022-12-07T03:17:27;91188.13;;;4.71
43292;BMP280;28754;47.700;7.924;2022-12-07T03:20:20;91180.75;;;4.70
43292;BMP280;28754;47.700;7.924;2022-12-07T03:23:11;91179.97;;;4.69
43292;BMP280;28754;47.700;7.924;2022-12-07T03:26:00;91182.31;;;4.71
43292;BMP280;28754;47.700;7.924;2022-12-07T03:28:55;91172.03;;;4.77
43292;BMP280;28754;47.700;7.924;2022-12-07T03:31:51;91181.22;;;4.83
43292;BMP280;28754;47.700;7.924;2022-12-07T03:35:02;91183.41;;;4.91
43292;BMP280;28754;47.700;7.924;2022-12-07T03:41:19;91182.03;;;5.00
43292;BMP280;28754;47.700;7.924;2022-12-07T03:44:07;91187.09;;;5.00
43292;BMP280;28754;47.700;7.924;2022-12-07T03:50:36;91175.72;;;5.02
43292;BMP280;28754;47.700;7.924;2022-12-07T03:53:36;91181.34;;;5.04
43292;BMP280;28754;47.700;7.924;2022-12-07T03:56:26;91179.50;;;5.00
43292;BMP280;28754;47.700;7.924;2022-12-07T03:59:16;91175.31;;;4.94
43292;BMP280;28754;47.700;7.924;2022-12-07T04:02:07;91185.09;;;4.85
43292;BMP280;28754;47.700;7.924;2022-12-07T04:04:55;91183.09;;;4.87
43292;BMP280;28754;47.700;7.924;2022-12-07T04:07:42;91182.31;;;4.87
43292;BMP280;28754;47.700;7.924;2022-12-07T04:10:28;91179.47;;;4.83
43292;BMP280;28754;47.700;7.924;2022-12-07T04:13:15;91177.72;;;4.84
43292;BMP280;28754;47.700;7.924;2022-12-07T04:16:02;91170.31;;;4.82
43292;BMP280;28754;47.700;7.924;2022-12-07T04:18:49;91167.50;;;4.79
43292;BMP280;28754;47.700;7.924;2022-12-07T04:21:36;91179.91;;;4.80
43292;BMP280;28754;47.700;7.924;2022-12-07T04:24:23;91168.25;;;4.79
43292;BMP280;28754;47.700;7.924;2022-12-07T04:27:09;91170.25;;;4.78
43292;BMP280;28754;47.700;7.924;2022-12-07T04:29:56;91167.72;;;4.78
43292;BMP280;28754;47.700;7.924;2022-12-07T04:32:43;91172.03;;;4.77
43292;BMP280;28754;47.700;7.924;2022-12-07T04:35:29;91162.41;;;4.79
43292;BMP280;28754;47.700;7.924;2022-12-07T04:38:16;91162.16;;;4.80
43292;BMP280;28754;47.700;7.924;2022-12-07T04:41:07;91161.19;;;4.81
43292;BMP280;28754;47.700;7.924;2022-12-07T04:43:55;91169.09;;;4.85
43292;BMP280;28754;47.700;7.924;2022-12-07T04:46:43;91167.09;;;4.87
43292;BMP280;28754;47.700;7.924;2022-12-07T04:49:30;91154.00;;;4.78
43292;BMP280;28754;47.700;7.924;2022-12-07T04:52:17;91159.09;;;4.78
43292;BMP280;28754;47.700;7.924;2022-12-07T04:55:04;91161.41;;;4.80
43292;BMP280;28754;47.700;7.924;2022-12-07T04:57:51;91162.16;;;4.80
43292;BMP280;28754;47.700;7.924;2022-12-07T05:00:43;91164.94;;;4.79
43292;BMP280;28754;47.700;7.924;2022-12-07T05:03:30;91168.69;;;4.77
43292;BMP280;28754;47.700;7.924;2022-12-07T05:06:17;91164.16;;;4.78
43292;BMP280;28754;47.700;7.924;2022-12-07T05:09:04;91168.00;;;4.81
43292;BMP280;28754;47.700;7.924;2022-12-07T05:11:51;91171.56;;;4.80
43292;BMP280;28754;47.700;7.924;2022-12-07T05:14:38;91168.69;;;4.77
43292;BMP280;28754;47.700;7.924;2022-12-07T05:17:25;91175.53;;;4.76
43292;BMP280;28754;47.700;7.924;2022-12-07T05:20:11;91165.38;;;4.76
43292;BMP280;28754;47.700;7.924;2022-12-07T05:22:58;91165.84;;;4.73
43292;BMP280;28754;47.700;7.924;2022-12-07T05:25:46;91170.16;;;4.73
43292;BMP280;28754;47.700;7.924;2022-12-07T05:28:33;91167.38;;;4.74
43292;BMP280;28754;47.700;7.924;2022-12-07T05:31:20;91167.38;;;4.74
43292;BMP280;28754;47.700;7.924;2022-12-07T05:34:07;91181.28;;;4.72
43292;BMP280;28754;47.700;7.924;2022-12-07T05:36:53;91177.22;;;4.71
43292;BMP280;28754;47.700;7.924;2022-12-07T05:39:40;91171.63;;;4.69
43292;BMP280;28754;47.700;7.924;2022-12-07T05:42:29;91183.50;;;4.68
43292;BMP280;28754;47.700;7.924;2022-12-07T05:45:15;91172.59;;;4.68
43292;BMP280;28754;47.700;7.924;2022-12-07T05:48:02;91180.97;;;4.68
43292;BMP280;28754;47.700;7.924;2022-12-07T05:50:50;91175.69;;;4.70
43292;BMP280;28754;47.700;7.924;2022-12-07T05:53:37;91172.91;;;4.71
43292;BMP280;28754;47.700;7.924;2022-12-07T05:56:24;91171.69;;;4.74
43292;BMP280;28754;47.700;7.924;2022-12-07T05:59:11;91175.53;;;4.76
43292;BMP280;28754;47.700;7.924;2022-12-07T06:02:14;91171.69;;;4.74
43292;BMP280;28754;47.700;7.924;2022-12-07T06:05:01;91174.31;;;4.78
43292;BMP280;28754;47.700;7.924;2022-12-07T06:07:47;91178.94;;;4.81
43292;BMP280;28754;47.700;7.924;2022-12-07T06:10:34;91176.16;;;4.83
43292;BMP280;28754;47.700;7.924;2022-12-07T06:13:21;91182.31;;;4.87
43292;BMP280;28754;47.700;7.924;2022-12-07T06:16:07;91171.88;;;4.83
43292;BMP280;28754;47.700;7.924;2022-12-07T06:18:54;91178.47;;;4.84
43292;BMP280;28754;47.700;7.924;2022-12-07T06:21:42;91186.31;;;4.83
43292;BMP280;28754;47.700;7.924;2022-12-07T06:24:28;91193.69;;;4.84
43292;BMP280;28754;47.700;7.924;2022-12-07T06:27:15;91183.78;;;4.83
43292;BMP280;28754;47.700;7.924;2022-12-07T06:30:02;91184.78;;;4.82
43292;BMP280;28754;47.700;7.924;2022-12-07T06:32:52;91190.75;;;4.76
43292;BMP280;28754;47.700;7.924;2022-12-07T06:35:39;91181.66;;;4.64
43292;BMP280;28754;47.700;7.924;2022-12-07T06:38:26;91183.47;;;4.52
43292;BMP280;28754;47.700;7.924;2022-12-07T06:41:12;91179.09;;;4.47
43292;BMP280;28754;47.700;7.924;2022-12-07T06:43:59;91179.28;;;4.46
43292;BMP280;28754;47.700;7.924;2022-12-07T06:46:46;91173.47;;;4.45
43292;BMP280;28754;47.700;7.924;2022-12-07T06:49:32;91182.50;;;4.42
43292;BMP280;28754;47.700;7.924;2022-12-07T06:52:19;91188.13;;;4.43
43292;BMP280;28754;47.700;7.924;2022-12-07T06:55:06;91183.72;;;4.39
43292;BMP280;28754;47.700;7.924;2022-12-07T06:57:53;91175.66;;;4.42
43292;BMP280;28754;47.700;7.924;2022-12-07T07:00:40;91174.44;;;4.44
43292;BMP280;28754;47.700;7.924;2022-12-07T07:03:27;91177.78;;;4.45
43292;BMP280;28754;47.700;7.924;2022-12-07T07:06:14;91184.03;;;4.43
43292;BMP280;28754;47.700;7.924;2022-12-07T07:09:01;91181.97;;;4.40
43292;BMP280;28754;47.700;7.924;2022-12-07T07:11:48;91190.34;;;4.40
43292;BMP280;28754;47.700;7.924;2022-12-07T07:14:34;91187.72;;;4.35
43292;BMP280;28754;47.700;7.924;2022-12-07T07:17:22;91197.09;;;4.35
43292;BMP280;28754;47.700;7.924;2022-12-07T07:20:09;91195.31;;;4.35
43292;BMP280;28754;47.700;7.924;2022-12-07T07:22:56;91195.78;;;4.32
43292;BMP280;28754;47.700;7.924;2022-12-07T07:25:44;91191.69;;;4.31
43292;BMP280;28754;47.700;7.924;2022-12-07T07:28:31;91199.75;;;4.28
43292;BMP280;28754;47.700;7.924;2022-12-07T07:31:18;91193.66;;;4.29
43292;BMP280;28754;47.700;7.924;2022-12-07T07:34:04;91195.22;;;4.30
43292;BMP280;28754;47.700;7.924;2022-12-07T07:36:51;91198.53;;;4.31
43292;BMP280;28754;47.700;7.924;2022-12-07T07:39:38;91202.59;;;4.32
43292;BMP280;28754;47.700;7.924;2022-12-07T07:42:24;91209.56;;;4.25
43292;BMP280;28754;47.700;7.924;2022-12-07T07:45:11;91206.03;;;4.14
43292;BMP280;28754;47.700;7.924;2022-12-07T07:47:58;91224.78;;;4.13
43292;BMP280;28754;47.700;7.924;2022-12-07T07:50:44;91207.94;;;4.08
43292;BMP280;28754;47.700;7.924;2022-12-07T07:53:31;91208.81;;;4.02
43292;BMP280;28754;47.700;7.924;2022-12-07T07:56:18;91209.81;;;4.01
43292;BMP280;28754;47.700;7.924;2022-12-07T07:59:04;91204.75;;;4.01
43292;BMP280;28754;47.700;7.924;2022-12-07T08:01:51;91205.06;;;4.04
43292;BMP280;28754;47.700;7.924;2022-12-07T08:04:38;91196.28;;;4.07
43292;BMP280;28754;47.700;7.924;2022-12-07T08:07:24;91214.66;;;4.13
43292;BMP280;28754;47.700;7.924;2022-12-07T08:10:13;91208.56;;;4.14
43292;BMP280;28754;47.700;7.924;2022-12-07T08:13:00;91218.84;;;4.19
43292;BMP280;28754;47.700;7.924;2022-12-07T08:16:09;91224.41;;;4.33
43292;BMP280;28754;47.700;7.924;2022-12-07T08:18:55;91214.25;;;4.44
43292;BMP280;28754;47.700;7.924;2022-12-07T08:21:42;91206.84;;;4.54
43292;BMP280;28754;47.700;7.924;2022-12-07T08:24:29;91210.88;;;4.66
43292;BMP280;28754;47.700;7.924;2022-12-07T08:27:16;91218.34;;;4.73
43292;BMP280;28754;47.700;7.924;2022-12-07T08:30:03;91208.50;;;4.76
43292;BMP280;28754;47.700;7.924;2022-12-07T08:32:50;91211.78;;;4.88
43292;BMP280;28754;47.700;7.924;2022-12-07T08:35:36;91220.34;;;4.98
43292;BMP280;28754;47.700;7.924;2022-12-07T08:38:23;91221.97;;;5.37
43292;BMP280;28754;47.700;7.924;2022-12-07T08:41:10;91210.31;;;5.52
43292;BMP280;28754;47.700;7.924;2022-12-07T08:43:56;91217.31;;;5.61
43292;BMP280;28754;47.700;7.924;2022-12-07T08:47:07;91213.44;;;6.50
43292;BMP280;28754;47.700;7.924;2022-12-07T08:49:54;91209.78;;;6.62
43292;BMP280;28754;47.700;7.924;2022-12-07T08:52:42;91211.53;;;7.04
43292;BMP280;28754;47.700;7.924;2022-12-07T08:55:29;91213.06;;;8.39
43292;BMP280;28754;47.700;7.924;2022-12-07T08:58:16;91197.03;;;10.32
43292;BMP280;28754;47.700;7.924;2022-12-07T09:01:03;91194.41;;;10.57
43292;BMP280;28754;47.700;7.924;2022-12-07T09:03:51;91196.47;;;10.55
43292;BMP280;28754;47.700;7.924;2022-12-07T09:06:38;91207.91;;;11.78
43292;BMP280;28754;47.700;7.924;2022-12-07T09:09:25;91194.91;;;12.82
43292;BMP280;28754;47.700;7.924;2022-12-07T09:12:11;91196.28;;;13.89
43292;BMP280;28754;47.700;7.924;2022-12-07T09:14:58;91198.75;;;15.02
43292;BMP280;28754;47.700;7.924;2022-12-07T09:17:46;91204.28;;;15.35
43292;BMP280;28754;47.700;7.924;2022-12-07T09:20:33;91207.44;;;15.32
43292;BMP280;28754;47.700;7.924;2022-12-07T09:23:20;91202.28;;;15.32
43292;BMP280;28754;47.700;7.924;2022-12-07T09:26:07;91198.25;;;15.40
43292;BMP280;28754;47.700;7.924;2022-12-07T09:28:53;91206.03;;;15.75
43292;BMP280;28754;47.700;7.924;2022-12-07T09:31:40;91203.13;;;16.11
43292;BMP280;28754;47.700;7.924;2022-12-07T09:34:30;91208.25;;;16.46
43292;BMP280;28754;47.700;7.924;2022-12-07T09:37:17;91207.31;;;16.72
43292;BMP280;28754;47.700;7.924;2022-12-07T09:40:05;91202.06;;;17.16
43292;BMP280;28754;47.700;7.924;2022-12-07T09:42:54;91199.75;;;17.61
43292;BMP280;28754;47.700;7.924;2022-12-07T09:45:43;91200.69;;;17.98
43292;BMP280;28754;47.700;7.924;2022-12-07T09:48:35;91211.38;;;18.47
43292;BMP280;28754;47.700;7.924;2022-12-07T09:51:24;91194.63;;;18.03
43292;BMP280;28754;47.700;7.924;2022-12-07T09:54:16;91195.88;;;16.65
43292;BMP280;28754;47.700;7.924;2022-12-07T09:57:03;91196.22;;;16.42
43292;BMP280;28754;47.700;7.924;2022-12-07T09:59:50;91185.94;;;17.18
43292;BMP280;28754;47.700;7.924;2022-12-07T10:02:39;91185.13;;;16.71
43292;BMP280;28754;47.700;7.924;2022-12-07T10:05:37;91190.06;;;15.11
43292;BMP280;28754;47.700;7.924;2022-12-07T10:08:25;91192.16;;;15.22
43292;BMP280;28754;47.700;7.924;2022-12-07T10:11:12;91183.34;;;14.83
43292;BMP280;28754;47.700;7.924;2022-12-07T10:14:12;91185.06;;;13.67
43292;BMP280;28754;47.700;7.924;2022-12-07T10:17:00;91185.84;;;14.30
43292;BMP280;28754;47.700;7.924;2022-12-07T10:19:47;91177.75;;;15.70
43292;BMP280;28754;47.700;7.924;2022-12-07T10:22:34;91172.13;;;16.93
43292;BMP280;28754;47.700;7.924;2022-12-07T10:25:22;91164.13;;;17.91
43292;BMP280;28754;47.700;7.924;2022-12-07T10:28:16;91161.59;;;18.70
43292;BMP280;28754;47.700;7.924;2022-12-07T10:31:17;91156.25;;;19.49
43292;BMP280;28754;47.700;7.924;2022-12-07T10:34:24;91151.81;;;18.84
43292;BMP280;28754;47.700;7.924;2022-12-07T10:40:33;91145.66;;;19.83
43292;BMP280;28754;47.700;7.924;2022-12-07T10:43:21;91133.41;;;20.24
43292;BMP280;28754;47.700;7.924;2022-12-07T10:56:29;91141.53;;;15.00
43292;BMP280;28754;47.700;7.924;2022-12-07T11:00:04;91142.22;;;13.75
43292;BMP280;28754;47.700;7.924;2022-12-07T11:03:35;91141.19;;;13.03
43292;BMP280;28754;47.700;7.924;2022-12-07T11:06:59;91146.44;;;12.24
43292;BMP280;28754;47.700;7.924;2022-12-07T11:10:19;91139.53;;;11.64
43292;BMP280;28754;47.700;7.924;2022-12-07T11:13:22;91142.03;;;11.35
43292;BMP280;28754;47.700;7.924;2022-12-07T11:19:55;91143.88;;;10.77
43292;BMP280;28754;47.700;7.924;2022-12-07T11:23:18;91132.00;;;10.43
43292;BMP280;28754;47.700;7.924;2022-12-07T11:29:44;91132.91;;;9.70
43292;BMP280;28754;47.700;7.924;2022-12-07T11:33:10;91129.09;;;9.53
43292;BMP280;28754;47.700;7.924;2022-12-07T11:36:37;91121.66;;;9.36
43292;BMP280;28754;47.700;7.924;2022-12-07T11:39:35;91126.75;;;9.22
43292;BMP280;28754;47.700;7.924;2022-12-07T11:42:28;91122.94;;;9.14
43292;BMP280;28754;47.700;7.924;2022-12-07T11:45:17;91115.25;;;8.94
43292;BMP280;28754;47.700;7.924;2022-12-07T11:51:20;91100.34;;;8.52
43292;BMP280;28754;47.700;7.924;2022-12-07T11:54:19;91102.38;;;8.50
43292;BMP280;28754;47.700;7.924;2022-12-07T11:57:35;91101.34;;;8.46
43292;BMP280;28754;47.700;7.924;2022-12-07T12:00:24;91091.66;;;8.43
43292;BMP280;28754;47.700;7.924;2022-12-07T12:03:25;91093.41;;;8.38
43292;BMP280;28754;47.700;7.924;2022-12-07T12:06:16;91095.72;;;8.34
43292;BMP280;28754;47.700;7.924;2022-12-07T12:09:17;91084.50;;;8.40
43292;BMP280;28754;47.700;7.924;2022-12-07T12:12:40;91082.47;;;8.42
43292;BMP280;28754;47.700;7.924;2022-12-07T12:16:17;91087.09;;;8.55
43292;BMP280;28754;47.700;7.924;2022-12-07T12:19:25;91078.91;;;8.43
43292;BMP280;28754;47.700;7.924;2022-12-07T12:22:18;91074.28;;;8.25
43292;BMP280;28754;47.700;7.924;2022-12-07T12:28:32;91088.13;;;7.93
43292;BMP280;28754;47.700;7.924;2022-12-07T12:37:42;91086.28;;;7.84
43292;BMP280;28754;47.700;7.924;2022-12-07T12:43:48;91068.66;;;7.73
43292;BMP280;28754;47.700;7.924;2022-12-07T12:46:37;91077.28;;;7.72
43292;BMP280;28754;47.700;7.924;2022-12-07T13:01:39;91071.72;;;7.75
43292;BMP280;28754;47.700;7.924;2022-12-07T13:04:39;91059.22;;;7.73
43292;BMP280;28754;47.700;7.924;2022-12-07T13:10:43;91048.19;;;7.63
43292;BMP280;28754;47.700;7.924;2022-12-07T13:13:33;91054.09;;;7.68
43292;BMP280;28754;47.700;7.924;2022-12-07T13:22:40;91049.69;;;7.54
43292;BMP280;28754;47.700;7.924;2022-12-07T13:25:41;91050.53;;;7.28
43292;BMP280;28754;47.700;7.924;2022-12-07T13:28:42;91050.38;;;7.04
43292;BMP280;28754;47.700;7.924;2022-12-07T13:34:33;91062.41;;;6.82
43292;BMP280;28754;47.700;7.924;2022-12-07T13:37:30;91059.03;;;6.72
43292;BMP280;28754;47.700;7.924;2022-12-07T13:40:21;91059.22;;;6.65
43292;BMP280;28754;47.700;7.924;2022-12-07T13:43:15;91053.63;;;6.63
43292;BMP280;28754;47.700;7.924;2022-12-07T13:46:09;91053.13;;;6.66
43292;BMP280;28754;47.700;7.924;2022-12-07T13:49:24;91059.50;;;6.69
43292;BMP280;28754;47.700;7.924;2022-12-07T13:52:17;91052.13;;;6.67
43292;BMP280;28754;47.700;7.924;2022-12-07T13:57:55;91038.47;;;6.78
43292;BMP280;28754;47.700;7.924;2022-12-07T14:00:42;91042.50;;;6.74
43292;BMP280;28754;47.700;7.924;2022-12-07T14:03:35;91032.56;;;6.73
43292;BMP280;28754;47.700;7.924;2022-12-07T14:06:26;91040.69;;;6.70
43292;BMP280;28754;47.700;7.924;2022-12-07T14:09:20;91034.03;;;6.64
43292;BMP280;28754;47.700;7.924;2022-12-07T14:12:08;91043.63;;;6.57
43292;BMP280;28754;47.700;7.924;2022-12-07T14:14:56;91036.47;;;6.54
43292;BMP280;28754;47.700;7.924;2022-12-07T14:17:55;91037.47;;;6.48
43292;BMP280;28754;47.700;7.924;2022-12-07T14:20:41;91036.41;;;6.44
43292;BMP280;28754;47.700;7.924;2022-12-07T14:23:28;91032.50;;;6.37
43292;BMP280;28754;47.700;7.924;2022-12-07T14:26:20;91039.06;;;6.33
43292;BMP280;28754;47.700;7.924;2022-12-07T14:29:32;91033.22;;;6.32
43292;BMP280;28754;47.700;7.924;2022-12-07T14:32:27;91032.69;;;6.30
43292;BMP280;28754;47.700;7.924;2022-12-07T14:35:18;91033.41;;;6.26
43292;BMP280;28754;47.700;7.924;2022-12-07T14:38:04;91032.06;;;6.18
43292;BMP280;28754;47.700;7.924;2022-12-07T14:40:53;91029.47;;;6.14
43292;BMP280;28754;47.700;7.924;2022-12-07T14:43:41;91029.19;;;6.10
43292;BMP280;28754;47.700;7.924;2022-12-07T14:46:27;91033.97;;;6.07
43292;BMP280;28754;47.700;7.924;2022-12-07T14:49:14;91032.91;;;6.03
43292;BMP280;28754;47.700;7.924;2022-12-07T14:52:01;91027.81;;;6.03
43292;BMP280;28754;47.700;7.924;2022-12-07T14:54:48;91033.75;;;6.08
43292;BMP280;28754;47.700;7.924;2022-12-07T14:57:35;91025.06;;;6.04
43292;BMP280;28754;47.700;7.924;2022-12-07T15:00:27;91022.81;;;6.08
43292;BMP280;28754;47.700;7.924;2022-12-07T15:03:14;91028.97;;;6.12
43292;BMP280;28754;47.700;7.924;2022-12-07T15:06:01;91025.97;;;6.19
43292;BMP280;28754;47.700;7.924;2022-12-07T15:08:48;91034.16;;;6.26
43292;BMP280;28754;47.700;7.924;2022-12-07T15:11:34;91034.47;;;6.30
43292;BMP280;28754;47.700;7.924;2022-12-07T15:14:21;91035.00;;;6.32
43292;BMP280;28754;47.700;7.924;2022-12-07T15:17:11;91032.22;;;6.33
43292;BMP280;28754;47.700;7.924;2022-12-07T15:19:59;91038.31;;;6.32
43292;BMP280;28754;47.700;7.924;2022-12-07T15:22:46;91032.16;;;6.28
43292;BMP280;28754;47.700;7.924;2022-12-07T15:25:32;91039.25;;;6.26
43292;BMP280;28754;47.700;7.924;2022-12-07T15:28:19;91031.41;;;6.28
43292;BMP280;28754;47.700;7.924;2022-12-07T15:31:14;91027.34;;;6.27
43292;BMP280;28754;47.700;7.924;2022-12-07T15:34:03;91033.72;;;6.29
43292;BMP280;28754;47.700;7.924;2022-12-07T15:36:49;91031.69;;;6.31
43292;BMP280;28754;47.700;7.924;2022-12-07T15:39:37;91030.94;;;6.31
43292;BMP280;28754;47.700;7.924;2022-12-07T15:42:24;91027.38;;;6.32
43292;BMP280;28754;47.700;7.924;2022-12-07T15:45:11;91019.22;;;6.30
43292;BMP280;28754;47.700;7.924;2022-12-07T15:48:00;91030.69;;;6.32
43292;BMP280;28754;47.700;7.924;2022-12-07T15:50:46;91022.28;;;6.32
43292;BMP280;28754;47.700;7.924;2022-12-07T15:53:34;91019.97;;;6.30
43292;BMP280;28754;47.700;7.924;2022-12-07T15:56:21;91018.16;;;6.26
43292;BMP280;28754;47.700;7.924;2022-12-07T15:59:08;91021.66;;;6.20
43292;BMP280;28754;47.700;7.924;2022-12-07T16:01:55;91010.69;;;6.15
43292;BMP280;28754;47.700;7.924;2022-12-07T16:04:42;91012.38;;;6.09
43292;BMP280;28754;47.700;7.924;2022-12-07T16:07:28;91012.88;;;6.06
43292;BMP280;28754;47.700;7.924;2022-12-07T16:10:16;91003.13;;;5.98
43292;BMP280;28754;47.700;7.924;2022-12-07T16:13:03;91010.94;;;5.92
43292;BMP280;28754;47.700;7.924;2022-12-07T16:15:50;91009.38;;;5.86
43292;BMP280;28754;47.700;7.924;2022-12-07T16:18:36;90999.91;;;5.81
43292;BMP280;28754;47.700;7.924;2022-12-07T16:21:23;91002.69;;;5.80
43292;BMP280;28754;47.700;7.924;2022-12-07T16:24:10;90995.06;;;5.80
43292;BMP280;28754;47.700;7.924;2022-12-07T16:26:59;91002.50;;;5.86
43292;BMP280;28754;47.700;7.924;2022-12-07T16:29:45;90995.88;;;5.85
43292;BMP280;28754;47.700;7.924;2022-12-07T16:32:32;91003.28;;;5.87
43292;BMP280;28754;47.700;7.924;2022-12-07T16:35:19;91003.28;;;5.87
43292;BMP280;28754;47.700;7.924;2022-12-07T16:38:06;90992.53;;;5.80
43292;BMP280;28754;47.700;7.924;2022-12-07T16:40:53;90996.56;;;5.76
43292;BMP280;28754;47.700;7.924;2022-12-07T16:43:40;90989.91;;;5.75
43292;BMP280;28754;47.700;7.924;2022-12-07T16:46:27;90993.53;;;5.79
43292;BMP280;28754;47.700;7.924;2022-12-07T16:49:15;90993.59;;;5.84
43292;BMP280;28754;47.700;7.924;2022-12-07T16:52:02;90986.22;;;5.82
43292;BMP280;28754;47.700;7.924;2022-12-07T16:54:49;90992.22;;;5.77
43292;BMP280;28754;47.700;7.924;2022-12-07T16:57:36;90991.97;;;5.73
43292;BMP280;28754;47.700;7.924;2022-12-07T17:00:23;90994.38;;;5.68
43292;BMP280;28754;47.700;7.924;2022-12-07T17:03:10;90989.97;;;5.59
43292;BMP280;28754;47.700;7.924;2022-12-07T17:05:58;90983.47;;;5.46
43292;BMP280;28754;47.700;7.924;2022-12-07T17:08:45;90981.41;;;5.44
43292;BMP280;28754;47.700;7.924;2022-12-07T17:11:32;90991.69;;;5.53
43292;BMP280;28754;47.700;7.924;2022-12-07T17:14:19;90994.81;;;5.60
43292;BMP280;28754;47.700;7.924;2022-12-07T17:17:24;90982.59;;;5.57
43292;BMP280;28754;47.700;7.924;2022-12-07T17:20:18;90986.69;;;5.58
43292;BMP280;28754;47.700;7.924;2022-12-07T17:23:05;90981.53;;;5.53
43292;BMP280;28754;47.700;7.924;2022-12-07T17:25:52;90990.78;;;5.64
43292;BMP280;28754;47.700;7.924;2022-12-07T17:28:41;90984.22;;;5.68
43292;BMP280;28754;47.700;7.924;2022-12-07T17:31:28;90967.53;;;5.72
43292;BMP280;28754;47.700;7.924;2022-12-07T17:34:15;90975.22;;;5.77
43292;BMP280;28754;47.700;7.924;2022-12-07T17:37:02;90970.28;;;5.71
43292;BMP280;28754;47.700;7.924;2022-12-07T17:39:51;90971.00;;;5.66
43292;BMP280;28754;47.700;7.924;2022-12-07T17:42:38;90976.03;;;5.61
43292;BMP280;28754;47.700;7.924;2022-12-07T17:45:33;90965.53;;;5.53
43292;BMP280;28754;47.700;7.924;2022-12-07T17:48:20;90958.50;;;5.39
43292;BMP280;28754;47.700;7.924;2022-12-07T17:51:06;90959.47;;;5.33
43292;BMP280;28754;47.700;7.924;2022-12-07T17:54:12;90951.75;;;5.28
43292;BMP280;28754;47.700;7.924;2022-12-07T17:57:02;90961.16;;;5.27
43292;BMP280;28754;47.700;7.924;2022-12-07T17:59:49;90960.41;;;5.27